sensor_id;sensor_type;location;lat;lon;timestamp;pressure;altitude;pressure_sealevel;temperature;humidity
39435;BME280;66825;51.880;-0.518;2023-05-21T00:00:45;101421.16;;;19.71;42.24
39435;BME280;66825;51.880;-0.518;2023-05-21T00:03:10;101417.03;;;19.68;42.33
39435;BME280;66825;51.880;-0.518;2023-05-21T00:05:40;101423.03;;;19.70;42.42
39435;BME280;66825;51.880;-0.518;2023-05-21T00:08:06;101415.16;;;19.68;42.55
39435;BME280;66825;51.880;-0.518;2023-05-21T00:10:32;101407.75;;;19.69;42.15
39435;BME280;66825;51.880;-0.518;2023-05-21T00:12:57;101408.84;;;19.68;42.26
39435;BME280;66825;51.880;-0.518;2023-05-21T00:15:23;101404.22;;;19.68;42.15
39435;BME280;66825;51.880;-0.518;2023-05-21T00:17:48;101412.41;;;19.68;42.31
39435;BME280;66825;51.880;-0.518;2023-05-21T00:20:14;101404.50;;;19.67;42.25
39435;BME280;66825;51.880;-0.518;2023-05-21T00:22:40;101403.69;;;19.66;42.45
39435;BME280;66825;51.880;-0.518;2023-05-21T00:25:10;101400.94;;;19.66;42.29
39435;BME280;66825;51.880;-0.518;2023-05-21T00:27:36;101394.69;;;19.66;42.34
39435;BME280;66825;51.880;-0.518;2023-05-21T00:30:02;101387.88;;;19.63;42.19
39435;BME280;66825;51.880;-0.518;2023-05-21T00:32:28;101391.94;;;19.66;42.38
39435;BME280;66825;51.880;-0.518;2023-05-21T00:34:53;101382.97;;;19.60;42.25
39435;BME280;66825;51.880;-0.518;2023-05-21T00:37:19;101372.13;;;19.55;42.44
39435;BME280;66825;51.880;-0.518;2023-05-21T00:39:45;101389.47;;;19.64;42.18
39435;BME280;66825;51.880;-0.518;2023-05-21T00:42:11;101388.69;;;19.64;42.18
39435;BME280;66825;51.880;-0.518;2023-05-21T00:44:37;101386.50;;;19.61;42.27
39435;BME280;66825;51.880;-0.518;2023-05-21T00:47:03;101395.53;;;19.61;42.31
39435;BME280;66825;51.880;-0.518;2023-05-21T00:49:30;101371.06;;;19.51;42.14
39435;BME280;66825;51.880;-0.518;2023-05-21T00:51:56;101385.41;;;19.62;42.23
39435;BME280;66825;51.880;-0.518;2023-05-21T00:54:22;101364.19;;;19.53;42.30
39435;BME280;66825;51.880;-0.518;2023-05-21T00:56:49;101381.88;;;19.61;42.21
39435;BME280;66825;51.880;-0.518;2023-05-21T00:59:15;101378.31;;;19.61;42.25
39435;BME280;66825;51.880;-0.518;2023-05-21T01:01:42;101363.38;;;19.53;42.25
39435;BME280;66825;51.880;-0.518;2023-05-21T01:04:10;101380.25;;;19.60;42.30
39435;BME280;66825;51.880;-0.518;2023-05-21T01:06:36;101377.81;;;19.59;42.11
39435;BME280;66825;51.880;-0.518;2023-05-21T01:09:02;101379.44;;;19.60;42.24
39435;BME280;66825;51.880;-0.518;2023-05-21T01:11:36;101385.19;;;19.58;42.21
39435;BME280;66825;51.880;-0.518;2023-05-21T01:14:04;101381.94;;;19.56;42.25
39435;BME280;66825;51.880;-0.518;2023-05-21T01:16:33;101385.78;;;19.55;42.30
39435;BME280;66825;51.880;-0.518;2023-05-21T01:19:00;101396.13;;;19.58;42.16
39435;BME280;66825;51.880;-0.518;2023-05-21T01:21:28;101383.84;;;19.56;42.33
39435;BME280;66825;51.880;-0.518;2023-05-21T01:23:54;101392.56;;;19.58;42.32
39435;BME280;66825;51.880;-0.518;2023-05-21T01:26:20;101383.31;;;19.53;42.40
39435;BME280;66825;51.880;-0.518;2023-05-21T01:28:46;101385.78;;;19.55;42.39
39435;BME280;66825;51.880;-0.518;2023-05-21T01:31:25;101398.34;;;19.56;42.44
39435;BME280;66825;51.880;-0.518;2023-05-21T01:33:53;101405.72;;;19.56;42.44
39435;BME280;66825;51.880;-0.518;2023-05-21T01:36:23;101400.53;;;19.54;42.35
39435;BME280;66825;51.880;-0.518;2023-05-21T01:39:21;101391.25;;;19.55;42.30
39435;BME280;66825;51.880;-0.518;2023-05-21T01:41:48;101397.81;;;19.54;42.33
39435;BME280;66825;51.880;-0.518;2023-05-21T01:44:17;101392.66;;;19.52;42.30
39435;BME280;66825;51.880;-0.518;2023-05-21T01:46:43;101384.78;;;19.46;42.35
39435;BME280;66825;51.880;-0.518;2023-05-21T01:49:09;101260.78;;;18.64;42.44
39435;BME280;66825;51.880;-0.518;2023-05-21T01:51:35;101393.78;;;19.46;42.25
39435;BME280;66825;51.880;-0.518;2023-05-21T01:54:01;101401.94;;;19.51;42.31
39435;BME280;66825;51.880;-0.518;2023-05-21T01:56:27;101397.56;;;19.50;42.28
39435;BME280;66825;51.880;-0.518;2023-05-21T01:58:54;101341.38;;;19.15;42.20
39435;BME280;66825;51.880;-0.518;2023-05-21T02:01:21;101391.28;;;19.50;42.20
39435;BME280;66825;51.880;-0.518;2023-05-21T02:03:47;101385.31;;;19.48;42.31
39435;BME280;66825;51.880;-0.518;2023-05-21T02:06:12;101390.47;;;19.49;42.21
39435;BME280;66825;51.880;-0.518;2023-05-21T02:08:38;101394.31;;;19.48;42.30
39435;BME280;66825;51.880;-0.518;2023-05-21T02:11:03;101397.03;;;19.48;42.29
39435;BME280;66825;51.880;-0.518;2023-05-21T02:13:29;101335.13;;;19.14;42.18
39435;BME280;66825;51.880;-0.518;2023-05-21T02:15:54;101392.69;;;19.47;42.21
39435;BME280;66825;51.880;-0.518;2023-05-21T02:18:20;101392.97;;;19.46;42.00
39435;BME280;66825;51.880;-0.518;2023-05-21T02:20:46;101394.63;;;19.47;42.40
39435;BME280;66825;51.880;-0.518;2023-05-21T02:23:11;101330.28;;;19.06;42.29
39435;BME280;66825;51.880;-0.518;2023-05-21T02:25:37;101392.19;;;19.45;42.34
39435;BME280;66825;51.880;-0.518;2023-05-21T02:28:02;101394.91;;;19.45;42.27
39435;BME280;66825;51.880;-0.518;2023-05-21T02:30:28;101381.81;;;19.42;42.30
39435;BME280;66825;51.880;-0.518;2023-05-21T02:32:53;101381.28;;;19.40;42.25
39435;BME280;66825;51.880;-0.518;2023-05-21T02:35:19;101390.81;;;19.43;42.25
39435;BME280;66825;51.880;-0.518;2023-05-21T02:37:44;101391.13;;;19.41;42.40
39435;BME280;66825;51.880;-0.518;2023-05-21T02:40:10;101353.03;;;19.26;42.33
39435;BME280;66825;51.880;-0.518;2023-05-21T02:42:37;101371.97;;;19.41;42.27
39435;BME280;66825;51.880;-0.518;2023-05-21T02:45:06;101383.75;;;19.42;42.40
39435;BME280;66825;51.880;-0.518;2023-05-21T02:47:31;101375.31;;;19.38;42.36
39435;BME280;66825;51.880;-0.518;2023-05-21T02:49:58;101377.44;;;19.41;42.41
39435;BME280;66825;51.880;-0.518;2023-05-21T02:52:24;101377.75;;;19.40;42.25
39435;BME280;66825;51.880;-0.518;2023-05-21T02:54:50;101369.56;;;19.40;42.26
39435;BME280;66825;51.880;-0.518;2023-05-21T02:57:16;101367.91;;;19.39;42.17
39435;BME280;66825;51.880;-0.518;2023-05-21T02:59:43;101368.47;;;19.35;42.40
39435;BME280;66825;51.880;-0.518;2023-05-21T03:02:09;101298.44;;;18.91;42.29
39435;BME280;66825;51.880;-0.518;2023-05-21T03:04:34;101374.47;;;19.38;42.33
39435;BME280;66825;51.880;-0.518;2023-05-21T03:07:04;101375.59;;;19.36;42.21
39435;BME280;66825;51.880;-0.518;2023-05-21T03:09:29;101367.38;;;19.36;42.40
39435;BME280;66825;51.880;-0.518;2023-05-21T03:11:55;101353.03;;;19.26;42.32
39435;BME280;66825;51.880;-0.518;2023-05-21T03:14:20;101360.59;;;19.34;42.35
39435;BME280;66825;51.880;-0.518;2023-05-21T03:16:47;101364.94;;;19.35;42.22
39435;BME280;66825;51.880;-0.518;2023-05-21T03:19:13;101364.16;;;19.34;42.34
39435;BME280;66825;51.880;-0.518;2023-05-21T03:21:40;101366.06;;;19.34;42.24
39435;BME280;66825;51.880;-0.518;2023-05-21T03:24:07;101352.75;;;19.27;42.39
39435;BME280;66825;51.880;-0.518;2023-05-21T03:26:34;101364.41;;;19.33;42.36
39435;BME280;66825;51.880;-0.518;2023-05-21T03:28:59;101303.66;;;18.87;42.16
39435;BME280;66825;51.880;-0.518;2023-05-21T03:31:25;101366.34;;;19.32;42.20
39435;BME280;66825;51.880;-0.518;2023-05-21T03:33:51;101364.72;;;19.31;42.19
39435;BME280;66825;51.880;-0.518;2023-05-21T03:36:18;101361.19;;;19.31;42.17
39435;BME280;66825;51.880;-0.518;2023-05-21T03:38:43;101370.19;;;19.31;42.27
39435;BME280;66825;51.880;-0.518;2023-05-21T03:41:09;101371.28;;;19.30;42.26
39435;BME280;66825;51.880;-0.518;2023-05-21T03:43:34;101367.75;;;19.30;42.15
39435;BME280;66825;51.880;-0.518;2023-05-21T03:46:00;101287.09;;;18.79;41.83
39435;BME280;66825;51.880;-0.518;2023-05-21T03:48:25;101373.22;;;19.30;42.15
39435;BME280;66825;51.880;-0.518;2023-05-21T03:50:51;101372.38;;;19.29;42.22
39435;BME280;66825;51.880;-0.518;2023-05-21T03:53:16;101349.03;;;19.18;42.22
39435;BME280;66825;51.880;-0.518;2023-05-21T03:55:42;101367.22;;;19.28;42.26
39435;BME280;66825;51.880;-0.518;2023-05-21T03:58:07;101365.28;;;19.28;42.20
39435;BME280;66825;51.880;-0.518;2023-05-21T04:00:36;101377.34;;;19.27;41.98
39435;BME280;66825;51.880;-0.518;2023-05-21T04:03:04;101365.56;;;19.27;42.32
39435;BME280;66825;51.880;-0.518;2023-05-21T04:05:31;101370.25;;;19.26;42.23
39435;BME280;66825;51.880;-0.518;2023-05-21T04:07:57;101369.41;;;19.26;42.21
39435;BME280;66825;51.880;-0.518;2023-05-21T04:10:23;101371.34;;;19.25;42.29
39435;BME280;66825;51.880;-0.518;2023-05-21T04:12:48;101371.09;;;19.22;42.33
39435;BME280;66825;51.880;-0.518;2023-05-21T04:15:19;101364.25;;;19.24;42.14
39435;BME280;66825;51.880;-0.518;2023-05-21T04:17:45;101375.19;;;19.24;42.20
39435;BME280;66825;51.880;-0.518;2023-05-21T04:20:12;101356.63;;;19.21;42.23
39435;BME280;66825;51.880;-0.518;2023-05-21T04:22:38;101361.50;;;19.24;42.06
39435;BME280;66825;51.880;-0.518;2023-05-21T04:25:04;101370.00;;;19.23;41.83
39435;BME280;66825;51.880;-0.518;2023-05-21T04:27:29;101362.63;;;19.23;42.17
39435;BME280;66825;51.880;-0.518;2023-05-21T04:29:55;101368.06;;;19.23;41.99
39435;BME280;66825;51.880;-0.518;2023-05-21T04:32:22;101371.91;;;19.22;42.11
39435;BME280;66825;51.880;-0.518;2023-05-21T04:34:48;101371.09;;;19.22;42.10
39435;BME280;66825;51.880;-0.518;2023-05-21T04:37:14;101373.00;;;19.21;42.13
39435;BME280;66825;51.880;-0.518;2023-05-21T04:39:42;101368.38;;;19.22;42.08
39435;BME280;66825;51.880;-0.518;2023-05-21T04:42:08;101378.47;;;19.21;42.06
39435;BME280;66825;51.880;-0.518;2023-05-21T04:44:35;101311.13;;;18.77;42.09
39435;BME280;66825;51.880;-0.518;2023-05-21T04:47:02;101379.88;;;19.18;42.12
39435;BME280;66825;51.880;-0.518;2023-05-21T04:49:27;101374.13;;;19.20;42.07
39435;BME280;66825;51.880;-0.518;2023-05-21T04:51:54;101379.38;;;19.16;42.03
39435;BME280;66825;51.880;-0.518;2023-05-21T04:54:19;101373.31;;;19.19;42.17
39435;BME280;66825;51.880;-0.518;2023-05-21T04:56:45;101365.09;;;19.19;42.15
39435;BME280;66825;51.880;-0.518;2023-05-21T04:59:12;101355.28;;;19.18;42.00
39435;BME280;66825;51.880;-0.518;2023-05-21T05:01:38;101370.88;;;19.18;42.13
39435;BME280;66825;51.880;-0.518;2023-05-21T05:04:04;101352.38;;;19.10;42.13
39435;BME280;66825;51.880;-0.518;2023-05-21T05:06:29;101361.03;;;19.17;42.16
39435;BME280;66825;51.880;-0.518;2023-05-21T05:08:55;101367.59;;;19.16;42.07
39435;BME280;66825;51.880;-0.518;2023-05-21T05:11:21;101362.13;;;19.16;42.19
39435;BME280;66825;51.880;-0.518;2023-05-21T05:13:47;101361.34;;;19.15;42.03
39435;BME280;66825;51.880;-0.518;2023-05-21T05:16:12;101358.88;;;19.14;42.03
39435;BME280;66825;51.880;-0.518;2023-05-21T05:18:43;101365.97;;;19.15;42.02
39435;BME280;66825;51.880;-0.518;2023-05-21T05:21:08;101367.91;;;19.14;42.08
39435;BME280;66825;51.880;-0.518;2023-05-21T05:23:34;101356.53;;;19.02;42.14
39435;BME280;66825;51.880;-0.518;2023-05-21T05:25:59;101369.81;;;19.14;42.09
39435;BME280;66825;51.880;-0.518;2023-05-21T05:28:25;101369.00;;;19.13;42.07
39435;BME280;66825;51.880;-0.518;2023-05-21T05:30:50;101362.72;;;19.13;42.07
39435;BME280;66825;51.880;-0.518;2023-05-21T05:33:16;101346.38;;;19.08;42.23
39435;BME280;66825;51.880;-0.518;2023-05-21T05:35:41;101349.03;;;19.13;42.13
39435;BME280;66825;51.880;-0.518;2023-05-21T05:38:07;101296.75;;;18.71;42.08
39435;BME280;66825;51.880;-0.518;2023-05-21T05:40:33;101336.56;;;19.07;41.98
39435;BME280;66825;51.880;-0.518;2023-05-21T05:42:59;101352.91;;;19.12;42.09
39435;BME280;66825;51.880;-0.518;2023-05-21T05:45:24;101348.53;;;19.11;41.99
39435;BME280;66825;51.880;-0.518;2023-05-21T05:47:51;101348.53;;;19.11;42.10
39435;BME280;66825;51.880;-0.518;2023-05-21T05:50:16;101354.00;;;19.11;41.93
39435;BME280;66825;51.880;-0.518;2023-05-21T05:52:42;101338.81;;;18.99;41.92
39435;BME280;66825;51.880;-0.518;2023-05-21T05:55:08;101353.19;;;19.10;42.10
39435;BME280;66825;51.880;-0.518;2023-05-21T05:57:34;101348.81;;;19.09;41.94
39435;BME280;66825;51.880;-0.518;2023-05-21T06:00:00;101308.03;;;18.88;42.02
39435;BME280;66825;51.880;-0.518;2023-05-21T06:02:25;101344.25;;;19.04;42.45
39435;BME280;66825;51.880;-0.518;2023-05-21T06:04:51;101356.19;;;19.09;42.06
39435;BME280;66825;51.880;-0.518;2023-05-21T06:07:16;101348.00;;;19.09;41.92
39435;BME280;66825;51.880;-0.518;2023-05-21T06:09:41;101340.91;;;19.08;41.92
39435;BME280;66825;51.880;-0.518;2023-05-21T06:12:07;101295.66;;;18.72;41.84
39435;BME280;66825;51.880;-0.518;2023-05-21T06:14:32;101347.47;;;19.07;41.99
39435;BME280;66825;51.880;-0.518;2023-05-21T06:16:58;101335.44;;;19.08;41.77
39435;BME280;66825;51.880;-0.518;2023-05-21T06:19:23;101199.78;;;18.20;42.26
39435;BME280;66825;51.880;-0.518;2023-05-21T06:21:49;101260.53;;;18.60;41.99
39435;BME280;66825;51.880;-0.518;2023-05-21T06:24:14;101349.94;;;19.08;42.09
39435;BME280;66825;51.880;-0.518;2023-05-21T06:26:40;101342.84;;;19.07;41.92
39435;BME280;66825;51.880;-0.518;2023-05-21T06:29:06;101334.91;;;19.05;42.11
39435;BME280;66825;51.880;-0.518;2023-05-21T06:31:32;101333.56;;;19.08;41.79
39435;BME280;66825;51.880;-0.518;2023-05-21T06:33:59;101340.63;;;19.09;41.87
39435;BME280;66825;51.880;-0.518;2023-05-21T06:36:25;101353.47;;;19.09;41.90
39435;BME280;66825;51.880;-0.518;2023-05-21T06:38:55;101343.66;;;19.08;41.95
39435;BME280;66825;51.880;-0.518;2023-05-21T06:41:21;101349.66;;;19.10;41.97
39435;BME280;66825;51.880;-0.518;2023-05-21T06:43:47;101349.66;;;19.10;41.94
39435;BME280;66825;51.880;-0.518;2023-05-21T06:46:12;101355.91;;;19.10;42.05
39435;BME280;66825;51.880;-0.518;2023-05-21T06:48:37;101364.09;;;19.10;41.93
39435;BME280;66825;51.880;-0.518;2023-05-21T06:51:03;101361.09;;;19.12;41.98
39435;BME280;66825;51.880;-0.518;2023-05-21T06:53:28;101354.00;;;19.11;41.95
39435;BME280;66825;51.880;-0.518;2023-05-21T06:55:54;101346.63;;;19.11;41.96
39435;BME280;66825;51.880;-0.518;2023-05-21T06:58:19;101358.38;;;19.12;41.87
39435;BME280;66825;51.880;-0.518;2023-05-21T07:00:46;101357.25;;;19.13;41.95
39435;BME280;66825;51.880;-0.518;2023-05-21T07:03:12;101357.25;;;19.13;41.97
39435;BME280;66825;51.880;-0.518;2023-05-21T07:05:37;101352.59;;;19.13;42.11
39435;BME280;66825;51.880;-0.518;2023-05-21T07:08:03;101344.41;;;19.13;41.88
39435;BME280;66825;51.880;-0.518;2023-05-21T07:10:28;101342.50;;;19.14;41.84
39435;BME280;66825;51.880;-0.518;2023-05-21T07:12:54;101341.97;;;19.12;41.95
39435;BME280;66825;51.880;-0.518;2023-05-21T07:15:19;101336.56;;;19.07;41.86
39435;BME280;66825;51.880;-0.518;2023-05-21T07:17:45;101352.31;;;19.15;41.80
39435;BME280;66825;51.880;-0.518;2023-05-21T07:20:11;101346.84;;;19.15;41.97
39435;BME280;66825;51.880;-0.518;2023-05-21T07:22:37;101345.75;;;19.16;41.90
39435;BME280;66825;51.880;-0.518;2023-05-21T07:25:03;101345.75;;;19.16;41.77
39435;BME280;66825;51.880;-0.518;2023-05-21T07:27:29;101346.28;;;19.18;41.71
39435;BME280;66825;51.880;-0.518;2023-05-21T07:29:54;101362.13;;;19.16;41.96
39435;BME280;66825;51.880;-0.518;2023-05-21T07:32:20;101352.84;;;19.17;41.69
39435;BME280;66825;51.880;-0.518;2023-05-21T07:34:45;101341.91;;;19.17;41.79
39435;BME280;66825;51.880;-0.518;2023-05-21T07:37:11;101335.69;;;19.11;41.78
39435;BME280;66825;51.880;-0.518;2023-05-21T07:39:38;101342.22;;;19.15;41.92
39435;BME280;66825;51.880;-0.518;2023-05-21T07:42:03;101349.03;;;19.18;41.92
39435;BME280;66825;51.880;-0.518;2023-05-21T07:44:29;101342.72;;;19.17;42.02
39435;BME280;66825;51.880;-0.518;2023-05-21T07:46:56;101348.19;;;19.17;42.08
39435;BME280;66825;51.880;-0.518;2023-05-21T07:49:22;101360.47;;;19.20;42.07
39435;BME280;66825;51.880;-0.518;2023-05-21T07:51:48;101309.97;;;18.88;41.90
39435;BME280;66825;51.880;-0.518;2023-05-21T07:54:14;101349.03;;;19.18;41.96
39435;BME280;66825;51.880;-0.518;2023-05-21T07:56:39;101292.25;;;18.80;41.85
39435;BME280;66825;51.880;-0.518;2023-05-21T07:59:05;101355.00;;;19.20;41.82
39435;BME280;66825;51.880;-0.518;2023-05-21T08:01:30;101362.09;;;19.21;41.88
39435;BME280;66825;51.880;-0.518;2023-05-21T08:03:57;101306.41;;;18.87;41.88
39435;BME280;66825;51.880;-0.518;2023-05-21T08:06:24;101261.06;;;18.62;41.90
39435;BME280;66825;51.880;-0.518;2023-05-21T08:08:51;101349.25;;;19.22;41.86
39435;BME280;66825;51.880;-0.518;2023-05-21T08:11:18;101336.78;;;19.10;41.87
39435;BME280;66825;51.880;-0.518;2023-05-21T08:13:44;101347.31;;;19.22;41.59
39435;BME280;66825;51.880;-0.518;2023-05-21T08:16:09;101354.41;;;19.23;41.88
39435;BME280;66825;51.880;-0.518;2023-05-21T08:18:35;101330.53;;;19.10;42.01
39435;BME280;66825;51.880;-0.518;2023-05-21T08:21:00;101347.06;;;19.24;41.81
39435;BME280;66825;51.880;-0.518;2023-05-21T08:23:26;101340.75;;;19.23;41.85
39435;BME280;66825;51.880;-0.518;2023-05-21T08:25:51;101342.47;;;19.19;41.84
39435;BME280;66825;51.880;-0.518;2023-05-21T08:28:17;101347.84;;;19.24;41.83
39435;BME280;66825;51.880;-0.518;2023-05-21T08:30:43;101339.66;;;19.24;41.75
39435;BME280;66825;51.880;-0.518;2023-05-21T08:33:08;101341.59;;;19.24;41.75
39435;BME280;66825;51.880;-0.518;2023-05-21T08:35:34;101343.19;;;19.25;41.82
39435;BME280;66825;51.880;-0.518;2023-05-21T08:37:59;101338.56;;;19.25;41.78
39435;BME280;66825;51.880;-0.518;2023-05-21T08:40:25;101323.91;;;19.16;41.90
39435;BME280;66825;51.880;-0.518;2023-05-21T08:42:50;101345.66;;;19.26;41.78
39435;BME280;66825;51.880;-0.518;2023-05-21T08:45:20;101339.38;;;19.26;41.76
39435;BME280;66825;51.880;-0.518;2023-05-21T08:47:46;101290.25;;;18.96;41.79
39435;BME280;66825;51.880;-0.518;2023-05-21T08:50:13;101340.13;;;19.31;41.78
39435;BME280;66825;51.880;-0.518;2023-05-21T08:52:40;101344.50;;;19.32;41.72
39435;BME280;66825;51.880;-0.518;2023-05-21T08:55:07;101326.00;;;19.24;41.84
39435;BME280;66825;51.880;-0.518;2023-05-21T08:57:33;101346.41;;;19.32;41.82
39435;BME280;66825;51.880;-0.518;2023-05-21T08:59:59;101343.16;;;19.30;41.88
39435;BME280;66825;51.880;-0.518;2023-05-21T09:02:26;101291.28;;;19.00;41.74
39435;BME280;66825;51.880;-0.518;2023-05-21T09:04:54;101340.44;;;19.30;41.69
39435;BME280;66825;51.880;-0.518;2023-05-21T09:07:25;101345.28;;;19.33;41.82
39435;BME280;66825;51.880;-0.518;2023-05-21T09:12:24;101345.28;;;19.33;41.86
39435;BME280;66825;51.880;-0.518;2023-05-21T09:14:50;101325.47;;;19.22;41.78
39435;BME280;66825;51.880;-0.518;2023-05-21T09:17:16;101343.38;;;19.33;41.76
39435;BME280;66825;51.880;-0.518;2023-05-21T09:20:03;101341.47;;;19.34;41.77
39435;BME280;66825;51.880;-0.518;2023-05-21T09:22:32;101337.94;;;19.33;41.82
39435;BME280;66825;51.880;-0.518;2023-05-21T09:24:57;101334.97;;;19.30;42.01
39435;BME280;66825;51.880;-0.518;2023-05-21T09:27:23;101316.78;;;19.20;41.75
39435;BME280;66825;51.880;-0.518;2023-05-21T09:29:48;101341.47;;;19.34;41.65
39435;BME280;66825;51.880;-0.518;2023-05-21T09:32:16;101272.53;;;18.94;41.84
39435;BME280;66825;51.880;-0.518;2023-05-21T09:34:41;101332.16;;;19.35;41.78
39435;BME280;66825;51.880;-0.518;2023-05-21T09:37:07;101313.69;;;19.27;41.86
39435;BME280;66825;51.880;-0.518;2023-05-21T09:39:34;101318.59;;;19.25;41.66
39435;BME280;66825;51.880;-0.518;2023-05-21T09:42:00;101318.28;;;19.31;41.88
39435;BME280;66825;51.880;-0.518;2023-05-21T09:44:26;101325.91;;;19.34;41.68
39435;BME280;66825;51.880;-0.518;2023-05-21T09:46:56;101303.34;;;19.24;41.77
39435;BME280;66825;51.880;-0.518;2023-05-21T09:49:24;101311.72;;;19.32;41.80
39435;BME280;66825;51.880;-0.518;2023-05-21T09:51:57;101318.50;;;19.35;41.77
39435;BME280;66825;51.880;-0.518;2023-05-21T09:54:23;101316.56;;;19.35;41.78
39435;BME280;66825;51.880;-0.518;2023-05-21T09:56:52;101313.84;;;19.35;41.89
39435;BME280;66825;51.880;-0.518;2023-05-21T09:59:18;101322.88;;;19.36;41.78
39435;BME280;66825;51.880;-0.518;2023-05-21T10:01:44;101321.75;;;19.37;41.84
39435;BME280;66825;51.880;-0.518;2023-05-21T10:04:10;101319.84;;;19.38;41.77
39435;BME280;66825;51.880;-0.518;2023-05-21T10:06:41;101306.47;;;19.36;41.71
39435;BME280;66825;51.880;-0.518;2023-05-21T10:09:10;101323.66;;;19.36;41.65
39435;BME280;66825;51.880;-0.518;2023-05-21T10:11:36;101320.66;;;19.38;41.81
39435;BME280;66825;51.880;-0.518;2023-05-21T10:14:15;101309.72;;;19.38;41.92
39435;BME280;66825;51.880;-0.518;2023-05-21T10:16:41;101319.84;;;19.38;41.68
39435;BME280;66825;51.880;-0.518;2023-05-21T10:19:07;101313.28;;;19.39;41.67
39435;BME280;66825;51.880;-0.518;2023-05-21T10:21:35;101315.19;;;19.38;41.73
39435;BME280;66825;51.880;-0.518;2023-05-21T10:24:01;101307.00;;;19.38;41.82
39435;BME280;66825;51.880;-0.518;2023-05-21T10:26:29;101316.00;;;19.39;41.69
39435;BME280;66825;51.880;-0.518;2023-05-21T10:28:55;101306.69;;;19.40;41.61
39435;BME280;66825;51.880;-0.518;2023-05-21T10:31:21;101314.06;;;19.39;41.82
39435;BME280;66825;51.880;-0.518;2023-05-21T10:33:47;101310.53;;;19.39;41.92
39435;BME280;66825;51.880;-0.518;2023-05-21T10:36:15;101281.72;;;19.27;41.96
39435;BME280;66825;51.880;-0.518;2023-05-21T10:38:42;101302.03;;;19.40;41.90
39435;BME280;66825;51.880;-0.518;2023-05-21T10:41:10;101308.91;;;19.38;41.73
39435;BME280;66825;51.880;-0.518;2023-05-21T10:44:04;101301.25;;;19.40;41.63
39435;BME280;66825;51.880;-0.518;2023-05-21T10:52:18;101295.47;;;19.41;41.76
39435;BME280;66825;51.880;-0.518;2023-05-21T11:00:06;101254.59;;;19.12;42.11
39435;BME280;66825;51.880;-0.518;2023-05-21T11:02:33;101288.69;;;19.39;41.72
39435;BME280;66825;51.880;-0.518;2023-05-21T11:05:00;101290.00;;;19.41;41.75
39435;BME280;66825;51.880;-0.518;2023-05-21T11:07:57;101289.72;;;19.43;41.93
39435;BME280;66825;51.880;-0.518;2023-05-21T11:10:29;101288.09;;;19.42;41.82
39435;BME280;66825;51.880;-0.518;2023-05-21T11:13:06;101291.63;;;19.42;41.84
39435;BME280;66825;51.880;-0.518;2023-05-21T11:21:07;101281.50;;;19.43;41.75
39435;BME280;66825;51.880;-0.518;2023-05-21T11:23:55;101277.66;;;19.44;41.81
39435;BME280;66825;51.880;-0.518;2023-05-21T11:29:08;101271.09;;;19.45;41.77
39435;BME280;66825;51.880;-0.518;2023-05-21T11:31:34;101258.91;;;19.37;41.82
39435;BME280;66825;51.880;-0.518;2023-05-21T11:36:44;101272.75;;;19.46;41.70
39435;BME280;66825;51.880;-0.518;2023-05-21T11:39:12;101267.56;;;19.44;41.64
39435;BME280;66825;51.880;-0.518;2023-05-21T11:42:08;101271.09;;;19.45;41.75
39435;BME280;66825;51.880;-0.518;2023-05-21T11:44:44;101270.00;;;19.46;41.89
39435;BME280;66825;51.880;-0.518;2023-05-21T11:47:11;101241.19;;;19.34;41.88
39435;BME280;66825;51.880;-0.518;2023-05-21T11:49:38;101261.81;;;19.46;41.74
39435;BME280;66825;51.880;-0.518;2023-05-21T11:52:05;101266.16;;;19.47;41.99
39435;BME280;66825;51.880;-0.518;2023-05-21T11:54:32;101249.78;;;19.47;41.96
39435;BME280;66825;51.880;-0.518;2023-05-21T11:57:05;101254.13;;;19.48;41.86
39435;BME280;66825;51.880;-0.518;2023-05-21T11:59:34;101241.44;;;19.38;41.79
39435;BME280;66825;51.880;-0.518;2023-05-21T12:02:00;101253.31;;;19.47;41.74
39435;BME280;66825;51.880;-0.518;2023-05-21T12:04:33;101261.22;;;19.49;41.88
39435;BME280;66825;51.880;-0.518;2023-05-21T12:07:08;101195.06;;;19.09;42.23
39435;BME280;66825;51.880;-0.518;2023-05-21T12:09:40;101262.84;;;19.50;41.69
39435;BME280;66825;51.880;-0.518;2023-05-21T12:12:11;101258.19;;;19.50;41.73
39435;BME280;66825;51.880;-0.518;2023-05-21T12:14:38;101254.94;;;19.48;41.75
39435;BME280;66825;51.880;-0.518;2023-05-21T12:17:05;101246.44;;;19.50;41.84
39435;BME280;66825;51.880;-0.518;2023-05-21T12:19:35;101251.91;;;19.50;41.63
39435;BME280;66825;51.880;-0.518;2023-05-21T12:22:05;101243.78;;;19.45;41.88
39435;BME280;66825;51.880;-0.518;2023-05-21T12:24:31;101229.00;;;19.46;41.74
39435;BME280;66825;51.880;-0.518;2023-05-21T12:26:58;101248.06;;;19.51;41.80
39435;BME280;66825;51.880;-0.518;2023-05-21T12:29:32;101221.69;;;19.41;41.96
39435;BME280;66825;51.880;-0.518;2023-05-21T12:31:58;101234.13;;;19.52;41.75
39435;BME280;66825;51.880;-0.518;2023-05-21T12:37:07;101222.53;;;19.42;41.72
39435;BME280;66825;51.880;-0.518;2023-05-21T12:39:46;101213.19;;;19.43;41.87
39435;BME280;66825;51.880;-0.518;2023-05-21T12:42:12;101232.19;;;19.53;41.82
39435;BME280;66825;51.880;-0.518;2023-05-21T12:44:47;101228.66;;;19.52;41.75
39435;BME280;66825;51.880;-0.518;2023-05-21T12:47:13;101191.78;;;19.31;41.80
39435;BME280;66825;51.880;-0.518;2023-05-21T12:49:43;101220.97;;;19.55;41.72
39435;BME280;66825;51.880;-0.518;2023-05-21T12:52:17;101224.53;;;19.55;41.81
39435;BME280;66825;51.880;-0.518;2023-05-21T12:54:52;101220.97;;;19.55;41.91
39435;BME280;66825;51.880;-0.518;2023-05-21T12:57:22;101222.75;;;19.45;41.80
39435;BME280;66825;51.880;-0.518;2023-05-21T13:04:55;101219.84;;;19.56;41.89
39435;BME280;66825;51.880;-0.518;2023-05-21T13:07:22;101205.38;;;19.55;41.68
39435;BME280;66825;51.880;-0.518;2023-05-21T13:09:47;101207.03;;;19.56;41.96
39435;BME280;66825;51.880;-0.518;2023-05-21T13:12:14;101207.81;;;19.57;41.88